Time;durP1;ratioP1;P1;durP2;ratioP2;P2;SDS_P1;SDS_P2;PMS_P1;PMS_P2;Temp;Humidity;BMP_temperature;BMP_pressure;BME280_temperature;BME280_humidity;BME280_pressure;Samples;Min_cycle;Max_cycle;Signal;HPM_P1;HPM_P2
2021/01/12 00:02:04;;;;;;;11.37;4.03;;;;;;;;;;5013335;28;20037;-57
2021/01/12 00:04:33;;;;;;;4.27;2.03;;;;;;;;;;5013484;28;20022;-57
2021/01/12 00:07:00;;;;;;;4.30;2.17;;;;;;;;;;5013479;28;20107;-57
2021/01/12 00:09:27;;;;;;;6.70;2.00;;;;;;;;;;5013302;28;20022;-57
2021/01/12 00:11:54;;;;;;;5.47;1.80;;;;;;;;;;5013207;28;20053;-57
2021/01/12 00:14:34;;;;;;;3.87;1.90;;;;;;;;;;5013244;28;20037;-57
2021/01/12 00:17:10;;;;;;;3.67;1.80;;;;;;;;;;5013258;28;20088;-57
2021/01/12 00:19:37;;;;;;;7.37;2.10;;;;;;;;;;5013136;28;20092;-57
2021/01/12 00:22:14;;;;;;;6.90;2.23;;;;;;;;;;5013086;28;20033;-57
2021/01/12 00:24:44;;;;;;;5.10;2.20;;;;;;;;;;5013281;28;20033;-57
2021/01/12 00:27:14;;;;;;;6.90;3.43;;;;;;;;;;5013125;28;20080;-57
2021/01/12 00:29:41;;;;;;;5.50;2.53;;;;;;;;;;5013070;28;20064;-57
2021/01/12 00:32:22;;;;;;;8.03;3.00;;;;;;;;;;5014075;28;20040;-58
2021/01/12 00:34:49;;;;;;;7.13;2.67;;;;;;;;;;5013070;28;20040;-57
2021/01/12 00:37:23;;;;;;;4.83;2.37;;;;;;;;;;5013103;28;20026;-57
2021/01/12 00:39:50;;;;;;;7.05;2.65;;;;;;;;;;5013159;28;20480;-57
2021/01/12 00:42:18;;;;;;;5.90;1.70;;;;;;;;;;5012915;28;20076;-57
2021/01/12 00:44:45;;;;;;;3.53;1.50;;;;;;;;;;5013008;28;20050;-57
2021/01/12 00:47:11;;;;;;;4.83;2.00;;;;;;;;;;5016388;28;20441;-57
2021/01/12 00:49:38;;;;;;;7.17;1.83;;;;;;;;;;5016882;28;20041;-57
2021/01/12 00:52:12;;;;;;;3.67;1.43;;;;;;;;;;5016831;28;20030;-57
2021/01/12 00:54:38;;;;;;;5.27;1.90;;;;;;;;;;5016848;28;20428;-57
2021/01/12 00:57:06;;;;;;;3.43;1.77;;;;;;;;;;5016801;28;20026;-57
2021/01/12 00:59:33;;;;;;;3.83;1.90;;;;;;;;;;5016850;28;20038;-56
2021/01/12 01:02:01;;;;;;;4.70;1.70;;;;;;;;;;5016653;28;20037;-57
2021/01/12 01:04:28;;;;;;;6.20;1.93;;;;;;;;;;5016686;28;20393;-57
2021/01/12 01:06:55;;;;;;;3.40;1.43;;;;;;;;;;5016704;28;20026;-57
2021/01/12 01:09:22;;;;;;;4.00;1.27;;;;;;;;;;5016661;28;20357;-57
2021/01/12 01:11:49;;;;;;;3.07;1.30;;;;;;;;;;5016588;28;20018;-57
2021/01/12 01:14:17;;;;;;;4.30;1.30;;;;;;;;;;5016529;28;20022;-57
2021/01/12 01:16:44;;;;;;;4.37;2.10;;;;;;;;;;5016446;28;20065;-57
2021/01/12 01:19:11;;;;;;;7.20;2.40;;;;;;;;;;5016496;28;20169;-57
2021/01/12 01:21:38;;;;;;;4.43;2.07;;;;;;;;;;5016289;28;20104;-57
2021/01/12 01:24:05;;;;;;;4.97;1.93;;;;;;;;;;5016258;28;20121;-57
2021/01/12 01:26:32;;;;;;;4.80;2.07;;;;;;;;;;5016236;28;20372;-57
2021/01/12 01:28:59;;;;;;;5.60;2.30;;;;;;;;;;5016130;28;20109;-57
2021/01/12 01:31:26;;;;;;;4.00;2.10;;;;;;;;;;5016407;28;20109;-57
2021/01/12 01:33:53;;;;;;;4.40;1.80;;;;;;;;;;5017425;28;20049;-57
2021/01/12 01:36:19;;;;;;;9.50;2.20;;;;;;;;;;5016081;28;20104;-57
2021/01/12 01:38:46;;;;;;;10.73;3.30;;;;;;;;;;5016073;28;20030;-57
2021/01/12 01:41:13;;;;;;;6.17;2.70;;;;;;;;;;5015952;28;20029;-57
2021/01/12 01:43:40;;;;;;;5.57;2.37;;;;;;;;;;5015951;28;20140;-57
2021/01/12 01:46:07;;;;;;;4.40;1.83;;;;;;;;;;5015862;28;20041;-56
2021/01/12 01:48:35;;;;;;;3.17;1.70;;;;;;;;;;5015900;28;20509;-57
2021/01/12 01:51:02;;;;;;;3.63;1.53;;;;;;;;;;5015762;28;20026;-57
2021/01/12 01:53:30;;;;;;;6.07;1.47;;;;;;;;;;5015766;28;20030;-57
2021/01/12 01:55:59;;;;;;;2.87;1.10;;;;;;;;;;5015708;28;20166;-57
2021/01/12 01:58:26;;;;;;;2.33;1.17;;;;;;;;;;5014572;28;20481;-57
2021/01/12 02:00:53;;;;;;;4.47;1.07;;;;;;;;;;5015950;28;20472;-57
2021/01/12 02:03:20;;;;;;;2.93;1.17;;;;;;;;;;5015561;28;20053;-56
2021/01/12 02:05:51;;;;;;;2.87;1.17;;;;;;;;;;5015586;28;20050;-56
2021/01/12 02:08:29;;;;;;;2.97;1.40;;;;;;;;;;5015540;28;20036;-57
2021/01/12 02:10:58;;;;;;;2.70;1.37;;;;;;;;;;5015390;28;20026;-57
2021/01/12 02:13:25;;;;;;;2.63;1.13;;;;;;;;;;5015470;28;20032;-57
2021/01/12 02:15:55;;;;;;;2.70;1.03;;;;;;;;;;5015377;28;20476;-57
2021/01/12 02:18:22;;;;;;;4.77;1.23;;;;;;;;;;5015300;28;20030;-56
2021/01/12 02:20:49;;;;;;;4.57;1.13;;;;;;;;;;5015134;28;20026;-57
2021/01/12 02:23:18;;;;;;;2.60;1.00;;;;;;;;;;5015189;28;20044;-57
2021/01/12 02:25:45;;;;;;;4.63;1.13;;;;;;;;;;5015113;28;20026;-56
2021/01/12 02:28:13;;;;;;;2.93;1.10;;;;;;;;;;5015078;28;20531;-57
2021/01/12 02:30:40;;;;;;;3.17;1.07;;;;;;;;;;5015184;28;20038;-57
2021/01/12 02:33:07;;;;;;;2.43;1.30;;;;;;;;;;5016212;28;20057;-57
2021/01/12 02:35:36;;;;;;;3.50;1.37;;;;;;;;;;5014932;28;20026;-57
2021/01/12 02:38:03;;;;;;;2.47;1.23;;;;;;;;;;5014850;28;20362;-57
2021/01/12 02:40:31;;;;;;;3.27;1.10;;;;;;;;;;5014833;28;20046;-57
2021/01/12 02:42:57;;;;;;;4.50;1.20;;;;;;;;;;5014812;28;20117;-57
2021/01/12 02:45:24;;;;;;;3.17;1.20;;;;;;;;;;5015066;28;20026;-56
2021/01/12 02:47:51;;;;;;;6.97;1.33;;;;;;;;;;5014706;28;20030;-57
2021/01/12 02:50:18;;;;;;;2.80;1.03;;;;;;;;;;5014643;28;20029;-56
2021/01/12 02:52:47;;;;;;;3.87;1.20;;;;;;;;;;5014568;28;20026;-56
2021/01/12 02:55:14;;;;;;;3.03;1.20;;;;;;;;;;5014717;28;20022;-56
2021/01/12 02:57:42;;;;;;;5.23;1.27;;;;;;;;;;5014520;28;20068;-56
2021/01/12 03:00:10;;;;;;;2.57;0.93;;;;;;;;;;5014471;28;20022;-57
2021/01/12 03:02:37;;;;;;;2.10;0.90;;;;;;;;;;5014407;28;20040;-57
2021/01/12 03:05:07;;;;;;;2.90;1.07;;;;;;;;;;5014458;28;20083;-56
2021/01/12 03:07:34;;;;;;;4.30;1.00;;;;;;;;;;5014404;28;20022;-56
2021/01/12 03:10:01;;;;;;;2.83;1.40;;;;;;;;;;5014008;28;20033;-56
2021/01/12 03:12:28;;;;;;;3.17;1.20;;;;;;;;;;5014292;28;20161;-56
2021/01/12 03:14:55;;;;;;;5.83;1.87;;;;;;;;;;5014323;28;20061;-57
2021/01/12 03:17:21;;;;;;;2.67;1.23;;;;;;;;;;5014212;28;20084;-56
2021/01/12 03:19:48;;;;;;;7.33;3.67;;;;;;;;;;5014151;28;20025;-56
2021/01/12 03:22:15;;;;;;;4.73;2.63;;;;;;;;;;5013984;28;20424;-56
2021/01/12 03:24:42;;;;;;;4.67;1.73;;;;;;;;;;5014126;28;20439;-56
2021/01/12 03:27:09;;;;;;;5.43;1.60;;;;;;;;;;5014107;28;20033;-56
2021/01/12 03:29:36;;;;;;;2.27;1.30;;;;;;;;;;5014015;28;20080;-56
2021/01/12 03:32:02;;;;;;;3.87;1.60;;;;;;;;;;5013636;28;20465;-56
2021/01/12 03:34:29;;;;;;;3.83;0.90;;;;;;;;;;5015044;28;20096;-56
2021/01/12 03:36:56;;;;;;;6.40;1.47;;;;;;;;;;5013806;28;20049;-57
2021/01/12 03:39:23;;;;;;;6.30;1.30;;;;;;;;;;5013507;28;20030;-57
2021/01/12 03:41:50;;;;;;;4.33;1.80;;;;;;;;;;5013508;28;20044;-56
2021/01/12 03:44:16;;;;;;;4.00;1.70;;;;;;;;;;5013738;28;20030;-56
2021/01/12 03:46:44;;;;;;;8.83;2.43;;;;;;;;;;5013705;28;20026;-56
2021/01/12 03:49:11;;;;;;;4.70;1.97;;;;;;;;;;5013692;28;20491;-56
2021/01/12 03:51:37;;;;;;;4.53;1.83;;;;;;;;;;5013638;28;20029;-55
2021/01/12 03:54:04;;;;;;;2.47;1.17;;;;;;;;;;5013544;28;20484;-55
2021/01/12 03:56:31;;;;;;;4.73;1.97;;;;;;;;;;5013481;28;20034;-56
2021/01/12 03:58:58;;;;;;;6.17;1.20;;;;;;;;;;5013611;28;20319;-55
2021/01/12 04:01:25;;;;;;;2.30;1.40;;;;;;;;;;5013473;28;20029;-55
2021/01/12 04:03:51;;;;;;;9.53;1.80;;;;;;;;;;5013382;28;20503;-56
2021/01/12 04:06:18;;;;;;;6.83;1.50;;;;;;;;;;5013494;28;20473;-55
2021/01/12 04:08:46;;;;;;;3.63;1.60;;;;;;;;;;5013462;28;20231;-56
2021/01/12 04:11:14;;;;;;;5.03;2.00;;;;;;;;;;5013308;28;20377;-55
2021/01/12 04:13:41;;;;;;;5.40;2.87;;;;;;;;;;5013391;28;20511;-55
2021/01/12 04:16:08;;;;;;;8.57;3.77;;;;;;;;;;5013333;28;20029;-56
2021/01/12 04:18:35;;;;;;;8.30;3.43;;;;;;;;;;5013167;28;20030;-56
2021/01/12 04:21:02;;;;;;;13.27;2.60;;;;;;;;;;5012560;28;20022;-56
2021/01/12 04:23:29;;;;;;;6.27;2.73;;;;;;;;;;5013052;28;20049;-56
2021/01/12 04:25:56;;;;;;;5.57;2.53;;;;;;;;;;5013219;28;20034;-56
2021/01/12 04:28:23;;;;;;;7.93;2.37;;;;;;;;;;5013180;28;20044;-56
2021/01/12 04:30:49;;;;;;;6.43;2.63;;;;;;;;;;5013096;28;20093;-56
2021/01/12 04:33:16;;;;;;;4.53;2.53;;;;;;;;;;5014166;28;20291;-56
2021/01/12 04:35:43;;;;;;;6.47;2.73;;;;;;;;;;5013150;28;20030;-56
2021/01/12 04:38:10;;;;;;;7.77;3.97;;;;;;;;;;5012945;28;20040;-57
2021/01/12 04:40:37;;;;;;;6.17;2.90;;;;;;;;;;5013023;28;20106;-56
2021/01/12 04:43:04;;;;;;;7.53;2.90;;;;;;;;;;5012852;28;20283;-57
2021/01/12 04:45:30;;;;;;;7.90;2.53;;;;;;;;;;5012952;28;20049;-56
2021/01/12 04:47:57;;;;;;;5.43;2.40;;;;;;;;;;5012920;28;20026;-56
2021/01/12 04:50:24;;;;;;;5.10;1.90;;;;;;;;;;5012832;28;20255;-55
2021/01/12 04:52:52;;;;;;;5.23;1.53;;;;;;;;;;5012871;28;20605;-56
2021/01/12 04:55:19;;;;;;;5.70;1.80;;;;;;;;;;5012915;28;20260;-56
2021/01/12 04:57:47;;;;;;;11.27;2.10;;;;;;;;;;5012882;28;20258;-56
2021/01/12 05:00:28;;;;;;;4.57;1.83;;;;;;;;;;5012864;28;20780;-56
2021/01/12 05:02:59;;;;;;;5.80;2.17;;;;;;;;;;5013069;28;20283;-56
2021/01/12 05:05:33;;;;;;;3.53;1.73;;;;;;;;;;5012894;28;20606;-57
2021/01/12 05:08:07;;;;;;;3.70;1.73;;;;;;;;;;5012777;28;20247;-57
2021/01/12 05:10:37;;;;;;;4.53;1.97;;;;;;;;;;5012758;28;20257;-57
2021/01/12 05:13:08;;;;;;;5.73;2.20;;;;;;;;;;5012787;28;20275;-57
2021/01/12 05:15:36;;;;;;;4.87;2.17;;;;;;;;;;5012761;28;20278;-57
2021/01/12 05:18:06;;;;;;;2.70;1.47;;;;;;;;;;5012622;28;20769;-57
2021/01/12 05:20:37;;;;;;;4.73;2.30;;;;;;;;;;5012607;28;20256;-56
2021/01/12 05:23:08;;;;;;;3.57;1.77;;;;;;;;;;5012651;28;20374;-57
2021/01/12 05:25:41;;;;;;;5.67;1.80;;;;;;;;;;5012572;28;20770;-57
2021/01/12 05:28:09;;;;;;;6.53;2.17;;;;;;;;;;5012544;28;20254;-57
2021/01/12 05:30:36;;;;;;;5.57;1.93;;;;;;;;;;5012406;28;20255;-57
2021/01/12 05:33:03;;;;;;;4.70;1.80;;;;;;;;;;5016292;28;20577;-57
2021/01/12 05:35:31;;;;;;;4.17;2.10;;;;;;;;;;5016262;28;20280;-58
2021/01/12 05:38:01;;;;;;;4.50;2.20;;;;;;;;;;5014261;28;20342;-56
2021/01/12 05:40:31;;;;;;;5.13;1.93;;;;;;;;;;5015811;28;20330;-56
2021/01/12 05:43:06;;;;;;;3.30;1.87;;;;;;;;;;5015929;28;20286;-56
2021/01/12 05:45:34;;;;;;;5.23;1.77;;;;;;;;;;5016000;28;20247;-56
2021/01/12 05:48:01;;;;;;;3.63;1.70;;;;;;;;;;5015868;28;20263;-56
2021/01/12 05:50:30;;;;;;;5.87;2.23;;;;;;;;;;5015711;28;20725;-56
2021/01/12 05:53:08;;;;;;;4.83;2.13;;;;;;;;;;5015717;28;20278;-56
2021/01/12 05:55:41;;;;;;;3.83;1.80;;;;;;;;;;5015696;28;20243;-56
2021/01/12 05:58:20;;;;;;;7.00;2.10;;;;;;;;;;5015963;28;20267;-56
2021/01/12 06:00:48;;;;;;;3.90;2.03;;;;;;;;;;5015669;28;20256;-56
2021/01/12 06:03:17;;;;;;;3.93;1.67;;;;;;;;;;5015549;28;20299;-55
2021/01/12 06:05:49;;;;;;;3.30;1.60;;;;;;;;;;5015533;28;20251;-56
2021/01/12 06:08:16;;;;;;;4.00;1.60;;;;;;;;;;5015787;28;20259;-56
2021/01/12 06:10:44;;;;;;;5.13;2.30;;;;;;;;;;5015538;28;20544;-57
2021/01/12 06:13:19;;;;;;;4.37;1.73;;;;;;;;;;5015360;28;20259;-57
2021/01/12 06:15:46;;;;;;;5.57;2.10;;;;;;;;;;5015393;28;20256;-56
2021/01/12 06:18:16;;;;;;;2.33;1.40;;;;;;;;;;5015302;28;20800;-56
2021/01/12 06:20:55;;;;;;;4.23;1.60;;;;;;;;;;5015326;28;20631;-58
2021/01/12 06:23:30;;;;;;;4.70;2.33;;;;;;;;;;5014913;28;20685;-58
2021/01/12 06:25:58;;;;;;;3.13;1.50;;;;;;;;;;5015245;28;20309;-58
2021/01/12 06:28:25;;;;;;;4.10;1.77;;;;;;;;;;5015025;28;20661;-58
2021/01/12 06:30:52;;;;;;;5.10;1.70;;;;;;;;;;5014950;28;20611;-58
2021/01/12 06:33:19;;;;;;;4.97;1.87;;;;;;;;;;5016245;28;20291;-58
2021/01/12 06:35:48;;;;;;;2.57;1.37;;;;;;;;;;5015374;28;20610;-58
2021/01/12 06:38:19;;;;;;;3.73;1.60;;;;;;;;;;5014887;28;20263;-58
2021/01/12 06:40:50;;;;;;;2.67;1.43;;;;;;;;;;5014901;28;20734;-58
2021/01/12 06:43:18;;;;;;;3.93;1.40;;;;;;;;;;5014154;28;20764;-58
2021/01/12 06:45:47;;;;;;;4.23;0.90;;;;;;;;;;5014862;28;20255;-58
2021/01/12 06:48:14;;;;;;;2.47;1.30;;;;;;;;;;5014786;28;20255;-58
2021/01/12 06:50:44;;;;;;;2.73;1.30;;;;;;;;;;5014697;28;20286;-58
2021/01/12 06:53:13;;;;;;;2.33;1.23;;;;;;;;;;5014675;28;20305;-58
2021/01/12 06:55:39;;;;;;;3.00;1.40;;;;;;;;;;5014551;28;20261;-58
2021/01/12 06:58:10;;;;;;;3.47;1.30;;;;;;;;;;5014565;28;20251;-58
2021/01/12 07:00:37;;;;;;;3.93;1.30;;;;;;;;;;5014448;28;20255;-58
2021/01/12 07:03:05;;;;;;;2.70;1.30;;;;;;;;;;5014503;28;20286;-58
2021/01/12 07:05:38;;;;;;;1.73;0.90;;;;;;;;;;5014546;28;20334;-57
2021/01/12 07:08:09;;;;;;;2.47;1.37;;;;;;;;;;5014408;28;20796;-58
2021/01/12 07:10:45;;;;;;;6.30;1.20;;;;;;;;;;5014423;28;20496;-58
2021/01/12 07:13:12;;;;;;;4.70;1.20;;;;;;;;;;5014269;28;20263;-58
2021/01/12 07:15:47;;;;;;;2.47;1.30;;;;;;;;;;5014325;28;20347;-58
2021/01/12 07:18:15;;;;;;;2.13;1.10;;;;;;;;;;5014181;28;20262;-58
2021/01/12 07:20:42;;;;;;;2.03;1.10;;;;;;;;;;5014426;28;20350;-58
2021/01/12 07:23:10;;;;;;;2.80;1.10;;;;;;;;;;5014179;28;20294;-58
2021/01/12 07:25:37;;;;;;;3.70;0.97;;;;;;;;;;5014104;28;20503;-58
2021/01/12 07:28:07;;;;;;;3.17;1.17;;;;;;;;;;5014086;28;20255;-58
2021/01/12 07:30:35;;;;;;;1.27;0.80;;;;;;;;;;5013885;28;20251;-58
2021/01/12 07:33:04;;;;;;;2.97;1.10;;;;;;;;;;5015193;28;20291;-58
2021/01/12 07:35:31;;;;;;;2.33;1.10;;;;;;;;;;5013884;28;20266;-58
2021/01/12 07:37:58;;;;;;;2.50;1.30;;;;;;;;;;5013756;28;20302;-58
2021/01/12 07:40:25;;;;;;;6.10;1.23;;;;;;;;;;5013839;28;20255;-57
2021/01/12 07:42:56;;;;;;;2.03;1.13;;;;;;;;;;5013753;28;20283;-57
2021/01/12 07:45:24;;;;;;;2.80;1.47;;;;;;;;;;5013731;28;20789;-58
2021/01/12 07:47:54;;;;;;;3.23;1.57;;;;;;;;;;5014019;28;20255;-57
2021/01/12 07:50:22;;;;;;;2.53;1.20;;;;;;;;;;5013663;28;20269;-57
2021/01/12 07:52:49;;;;;;;2.50;1.23;;;;;;;;;;5013590;28;20256;-58
2021/01/12 07:55:15;;;;;;;3.83;1.57;;;;;;;;;;5012723;28;20313;-57
2021/01/12 07:57:43;;;;;;;2.00;1.00;;;;;;;;;;5013502;28;20260;-57
2021/01/12 08:00:14;;;;;;;2.60;1.00;;;;;;;;;;5013476;28;20378;-58
2021/01/12 08:02:43;;;;;;;1.80;1.00;;;;;;;;;;5013376;28;20287;-58
2021/01/12 08:05:11;;;;;;;2.87;1.20;;;;;;;;;;5013534;28;20262;-58
2021/01/12 08:07:38;;;;;;;1.57;0.97;;;;;;;;;;5013360;28;20256;-58
2021/01/12 08:10:06;;;;;;;3.03;1.07;;;;;;;;;;5012061;28;20266;-57
2021/01/12 08:12:33;;;;;;;2.87;1.07;;;;;;;;;;5013360;28;20256;-58
2021/01/12 08:15:14;;;;;;;2.30;0.80;;;;;;;;;;5013280;28;20259;-57
2021/01/12 08:17:50;;;;;;;1.23;0.60;;;;;;;;;;5013338;28;20260;-57
2021/01/12 08:20:18;;;;;;;3.37;0.90;;;;;;;;;;5013159;28;20366;-57
2021/01/12 08:22:51;;;;;;;1.70;0.73;;;;;;;;;;5013182;28;20425;-57
2021/01/12 08:25:18;;;;;;;2.03;0.77;;;;;;;;;;5013134;28;20308;-58
2021/01/12 08:27:49;;;;;;;2.57;0.80;;;;;;;;;;5013149;28;20286;-57
2021/01/12 08:30:18;;;;;;;1.17;0.70;;;;;;;;;;5013078;28;20738;-58
2021/01/12 08:32:47;;;;;;;1.10;0.70;;;;;;;;;;5014062;28;20252;-57
2021/01/12 08:35:14;;;;;;;2.23;0.87;;;;;;;;;;5013135;28;20615;-57
2021/01/12 08:37:42;;;;;;;1.83;0.80;;;;;;;;;;5013092;28;20358;-58
2021/01/12 08:40:09;;;;;;;0.83;0.60;;;;;;;;;;5012934;28;20382;-57
2021/01/12 08:42:38;;;;;;;0.83;0.70;;;;;;;;;;5012949;28;20291;-57
2021/01/12 08:45:13;;;;;;;1.50;0.80;;;;;;;;;;5013051;28;20260;-57
2021/01/12 08:47:39;;;;;;;1.88;0.60;;;;;;;;;;5013052;28;20658;-57
2021/01/12 08:50:07;;;;;;;3.93;0.90;;;;;;;;;;5012935;28;20088;-58
2021/01/12 08:52:35;;;;;;;1.30;0.80;;;;;;;;;;5012907;28;20247;-57
2021/01/12 08:55:02;;;;;;;2.83;0.83;;;;;;;;;;5012968;28;20334;-58
2021/01/12 08:57:29;;;;;;;4.50;1.00;;;;;;;;;;5012809;28;20251;-58
2021/01/12 08:59:55;;;;;;;1.77;0.90;;;;;;;;;;5012792;28;20278;-58
2021/01/12 09:02:22;;;;;;;1.60;0.90;;;;;;;;;;5012782;28;20342;-57
2021/01/12 09:05:09;;;;;;;1.43;0.87;;;;;;;;;;5012809;28;20679;-57
2021/01/12 09:07:36;;;;;;;1.10;0.60;;;;;;;;;;5014784;28;20610;-57
2021/01/12 09:10:04;;;;;;;3.00;0.60;;;;;;;;;;5016577;28;20661;-57
2021/01/12 09:12:31;;;;;;;3.23;0.80;;;;;;;;;;5016560;28;20297;-57
2021/01/12 09:14:58;;;;;;;3.00;0.90;;;;;;;;;;5016493;28;20278;-57
2021/01/12 09:17:25;;;;;;;2.10;1.20;;;;;;;;;;5016585;28;20254;-57
2021/01/12 09:19:52;;;;;;;1.87;0.70;;;;;;;;;;5016427;28;20266;-57
2021/01/12 09:22:20;;;;;;;2.90;0.97;;;;;;;;;;5016358;28;20757;-57
2021/01/12 09:24:47;;;;;;;2.93;0.73;;;;;;;;;;5016451;28;20247;-57
2021/01/12 09:27:20;;;;;;;3.60;0.87;;;;;;;;;;5016272;28;20255;-57
2021/01/12 09:29:46;;;;;;;2.47;1.03;;;;;;;;;;5016235;28;20256;-57
2021/01/12 09:32:13;;;;;;;1.77;0.80;;;;;;;;;;5016073;28;20259;-58
2021/01/12 09:34:43;;;;;;;1.90;1.10;;;;;;;;;;5017520;28;20789;-57
2021/01/12 09:37:16;;;;;;;2.37;0.80;;;;;;;;;;5016189;28;20313;-57
2021/01/12 09:39:44;;;;;;;1.73;1.00;;;;;;;;;;5016065;28;20342;-57
2021/01/12 09:42:11;;;;;;;1.33;0.60;;;;;;;;;;5015900;28;20278;-57
2021/01/12 09:44:38;;;;;;;2.30;0.80;;;;;;;;;;5015957;28;20346;-57
2021/01/12 09:47:05;;;;;;;1.33;0.70;;;;;;;;;;5015941;28;20612;-57
2021/01/12 09:49:31;;;;;;;1.57;0.83;;;;;;;;;;5015941;28;20266;-57
2021/01/12 09:51:58;;;;;;;1.57;0.73;;;;;;;;;;5015774;28;20258;-57
2021/01/12 09:54:25;;;;;;;2.77;0.63;;;;;;;;;;5015823;28;20252;-57
2021/01/12 09:56:51;;;;;;;1.30;0.63;;;;;;;;;;5015772;28;20334;-57
2021/01/12 09:59:18;;;;;;;2.00;0.73;;;;;;;;;;5015700;28;20267;-57
2021/01/12 10:01:45;;;;;;;0.77;0.63;;;;;;;;;;5015569;28;20255;-57
2021/01/12 10:04:13;;;;;;;1.50;0.73;;;;;;;;;;5015588;28;20284;-57
2021/01/12 10:06:40;;;;;;;0.77;0.47;;;;;;;;;;5015828;28;20256;-58
2021/01/12 10:09:06;;;;;;;1.50;0.80;;;;;;;;;;5015622;28;20742;-57
2021/01/12 10:11:34;;;;;;;0.67;0.50;;;;;;;;;;5015380;28;20393;-57
2021/01/12 10:14:00;;;;;;;0.97;0.60;;;;;;;;;;5015353;28;20260;-57
2021/01/12 10:16:27;;;;;;;0.90;0.50;;;;;;;;;;5015515;28;20334;-57
2021/01/12 10:18:54;;;;;;;2.10;1.20;;;;;;;;;;5014306;28;20614;-57
2021/01/12 10:21:21;;;;;;;2.03;0.70;;;;;;;;;;5015355;28;20259;-57
2021/01/12 10:23:48;;;;;;;2.23;0.80;;;;;;;;;;5015118;28;20345;-57
2021/01/12 10:26:19;;;;;;;1.47;0.70;;;;;;;;;;5015285;28;20609;-57
2021/01/12 10:28:47;;;;;;;1.27;0.80;;;;;;;;;;5015214;28;20290;-57
2021/01/12 10:31:15;;;;;;;1.07;0.80;;;;;;;;;;5015068;28;20247;-57
2021/01/12 10:33:42;;;;;;;0.60;0.50;;;;;;;;;;5016297;28;20325;-58
2021/01/12 10:36:12;;;;;;;1.13;0.60;;;;;;;;;;5015100;28;20267;-57
2021/01/12 10:38:39;;;;;;;3.17;0.90;;;;;;;;;;5014978;28;20247;-57
2021/01/12 10:41:06;;;;;;;1.73;0.70;;;;;;;;;;5014858;28;20256;-57
2021/01/12 10:43:33;;;;;;;1.43;0.60;;;;;;;;;;5014849;28;20287;-57
2021/01/12 10:46:00;;;;;;;1.53;0.90;;;;;;;;;;5014811;28;20252;-57
2021/01/12 10:48:27;;;;;;;0.80;0.60;;;;;;;;;;5014867;28;20274;-57
2021/01/12 10:50:54;;;;;;;1.37;0.73;;;;;;;;;;5014741;28;20282;-57
2021/01/12 10:53:21;;;;;;;1.33;0.80;;;;;;;;;;5014692;28;20259;-57
2021/01/12 10:55:48;;;;;;;1.33;0.50;;;;;;;;;;5014687;28;20335;-57
2021/01/12 10:58:15;;;;;;;3.50;0.80;;;;;;;;;;5014667;28;20271;-57
2021/01/12 11:00:42;;;;;;;1.60;0.70;;;;;;;;;;5014544;28;20257;-57
2021/01/12 11:03:09;;;;;;;2.73;0.80;;;;;;;;;;5014449;28;20677;-57
2021/01/12 11:05:36;;;;;;;1.83;0.60;;;;;;;;;;5014716;28;20256;-57
2021/01/12 11:08:03;;;;;;;1.37;0.80;;;;;;;;;;5014411;28;20654;-57
2021/01/12 11:10:30;;;;;;;1.10;0.60;;;;;;;;;;5014391;28;20613;-57
2021/01/12 11:13:03;;;;;;;1.23;0.53;;;;;;;;;;5014321;28;20265;-58
2021/01/12 11:15:30;;;;;;;1.03;0.50;;;;;;;;;;5014325;28;20268;-57
2021/01/12 11:17:57;;;;;;;1.20;0.70;;;;;;;;;;5014166;28;20263;-57
2021/01/12 11:20:24;;;;;;;1.13;0.70;;;;;;;;;;5014182;28;20267;-57
2021/01/12 11:22:51;;;;;;;0.63;0.50;;;;;;;;;;5014113;28;20326;-57
2021/01/12 11:25:17;;;;;;;1.43;0.73;;;;;;;;;;5014186;28;20252;-57
2021/01/12 11:27:44;;;;;;;2.13;0.77;;;;;;;;;;5014104;28;20661;-57
2021/01/12 11:30:11;;;;;;;0.80;0.60;;;;;;;;;;5013814;28;20251;-57
2021/01/12 11:32:40;;;;;;;3.10;0.83;;;;;;;;;;5013958;28;20263;-57
2021/01/12 11:35:07;;;;;;;1.50;0.77;;;;;;;;;;5015141;28;20619;-57
2021/01/12 11:37:34;;;;;;;0.77;0.50;;;;;;;;;;5013908;28;20662;-57
2021/01/12 11:40:02;;;;;;;6.93;3.53;;;;;;;;;;5013764;28;20323;-57
2021/01/12 11:42:28;;;;;;;3.10;1.40;;;;;;;;;;5013972;28;20777;-57
2021/01/12 11:44:55;;;;;;;1.10;0.80;;;;;;;;;;5013819;28;20282;-57
2021/01/12 11:47:22;;;;;;;1.37;0.90;;;;;;;;;;5013689;28;20347;-57
2021/01/12 11:49:49;;;;;;;2.60;0.93;;;;;;;;;;5013748;28;20255;-57
2021/01/12 11:52:17;;;;;;;1.03;0.77;;;;;;;;;;5013663;28;20334;-57
2021/01/12 11:54:44;;;;;;;1.47;0.70;;;;;;;;;;5013718;28;20251;-57
2021/01/12 11:57:13;;;;;;;1.20;0.70;;;;;;;;;;5013608;28;20286;-57
2021/01/12 11:59:40;;;;;;;1.40;0.67;;;;;;;;;;5013589;28;20250;-57
2021/01/12 12:02:07;;;;;;;1.43;0.70;;;;;;;;;;5013483;28;20778;-57
2021/01/12 12:04:33;;;;;;;2.10;0.77;;;;;;;;;;5013627;28;20654;-57
2021/01/12 12:07:02;;;;;;;1.73;0.73;;;;;;;;;;5013518;28;20240;-57
2021/01/12 12:09:32;;;;;;;0.77;0.50;;;;;;;;;;5013461;28;20260;-57
2021/01/12 12:12:00;;;;;;;1.97;0.90;;;;;;;;;;5013588;28;20252;-57
2021/01/12 12:14:27;;;;;;;1.87;1.00;;;;;;;;;;5013277;28;20796;-57
2021/01/12 12:16:54;;;;;;;1.20;0.60;;;;;;;;;;5013356;28;20275;-57
2021/01/12 12:19:21;;;;;;;1.80;0.90;;;;;;;;;;5013293;28;20251;-57
2021/01/12 12:21:52;;;;;;;1.60;0.90;;;;;;;;;;5013090;28;20733;-57
2021/01/12 12:24:20;;;;;;;2.10;1.13;;;;;;;;;;5013474;28;20653;-57
2021/01/12 12:26:47;;;;;;;1.40;1.10;;;;;;;;;;5013188;28;20251;-57
2021/01/12 12:29:14;;;;;;;2.33;1.23;;;;;;;;;;5013204;28;20263;-57
2021/01/12 12:31:40;;;;;;;3.70;1.00;;;;;;;;;;5013114;28;20330;-57
2021/01/12 12:34:07;;;;;;;2.87;0.73;;;;;;;;;;5014378;28;20392;-57
2021/01/12 12:36:34;;;;;;;1.57;0.60;;;;;;;;;;5013117;28;20305;-57
2021/01/12 12:39:01;;;;;;;1.70;0.80;;;;;;;;;;5013044;28;20255;-57
2021/01/12 12:41:31;;;;;;;1.47;0.90;;;;;;;;;;5013266;28;20254;-57
2021/01/12 12:43:59;;;;;;;2.63;0.80;;;;;;;;;;5017120;28;20304;-57
2021/01/12 12:46:26;;;;;;;1.60;1.00;;;;;;;;;;5017092;28;20255;-57
2021/01/12 12:48:54;;;;;;;2.00;1.30;;;;;;;;;;5017036;28;20259;-57
2021/01/12 12:51:21;;;;;;;1.80;0.90;;;;;;;;;;5016889;28;20653;-57
2021/01/12 12:53:49;;;;;;;1.40;0.83;;;;;;;;;;5017009;28;20279;-57
2021/01/12 12:56:17;;;;;;;1.33;0.90;;;;;;;;;;5016884;28;20766;-57
2021/01/12 12:58:44;;;;;;;2.40;0.70;;;;;;;;;;5016839;28;20256;-57
2021/01/12 13:01:13;;;;;;;3.23;1.43;;;;;;;;;;5016805;28;20614;-57
2021/01/12 13:03:41;;;;;;;3.80;1.50;;;;;;;;;;5016674;28;20326;-57
2021/01/12 13:06:08;;;;;;;4.93;2.83;;;;;;;;;;5016736;28;20251;-57
2021/01/12 13:08:35;;;;;;;6.13;3.60;;;;;;;;;;5016650;28;20302;-57
2021/01/12 13:11:03;;;;;;;3.33;1.53;;;;;;;;;;5016635;28;20290;-57
2021/01/12 13:13:30;;;;;;;3.47;1.60;;;;;;;;;;5016681;28;20255;-57
2021/01/12 13:15:57;;;;;;;3.20;1.70;;;;;;;;;;5016517;28;20274;-57
2021/01/12 13:18:27;;;;;;;9.60;2.00;;;;;;;;;;5016399;28;20274;-57
2021/01/12 13:20:57;;;;;;;4.97;2.27;;;;;;;;;;5016452;28;20262;-57
2021/01/12 13:23:25;;;;;;;3.13;1.83;;;;;;;;;;5016376;28;20287;-57
2021/01/12 13:25:52;;;;;;;4.03;1.90;;;;;;;;;;5016474;28;20262;-57
2021/01/12 13:28:21;;;;;;;4.13;2.10;;;;;;;;;;5016290;28;20287;-57
2021/01/12 13:30:48;;;;;;;7.37;2.37;;;;;;;;;;5016126;28;20252;-57
2021/01/12 13:33:15;;;;;;;7.67;3.30;;;;;;;;;;5016243;28;20358;-57
2021/01/12 13:35:42;;;;;;;6.53;3.47;;;;;;;;;;5017317;28;20280;-57
2021/01/12 13:38:08;;;;;;;7.30;2.70;;;;;;;;;;5016181;28;20267;-57
2021/01/12 13:40:35;;;;;;;7.23;3.00;;;;;;;;;;5015988;28;20247;-57
2021/01/12 13:43:02;;;;;;;4.97;2.50;;;;;;;;;;5015931;28;20370;-57
2021/01/12 13:45:30;;;;;;;8.50;2.60;;;;;;;;;;5015968;28;20260;-57
2021/01/12 13:47:57;;;;;;;16.10;2.87;;;;;;;;;;5015964;28;20287;-57
2021/01/12 13:50:25;;;;;;;6.37;2.97;;;;;;;;;;5015926;28;20263;-57
2021/01/12 13:52:52;;;;;;;7.83;3.50;;;;;;;;;;5015708;28;20346;-57
2021/01/12 13:55:20;;;;;;;9.40;5.00;;;;;;;;;;5015841;28;20313;-58
2021/01/12 13:57:54;;;;;;;6.63;3.43;;;;;;;;;;5015769;28;20700;-57
2021/01/12 14:00:21;;;;;;;8.60;3.88;;;;;;;;;;5015680;28;20267;-58
2021/01/12 14:02:48;;;;;;;5.63;3.70;;;;;;;;;;5015609;28;20389;-58
2021/01/12 14:05:15;;;;;;;5.40;3.23;;;;;;;;;;5015684;28;20727;-58
2021/01/12 14:07:42;;;;;;;6.70;3.20;;;;;;;;;;5015589;28;20346;-58
2021/01/12 14:10:09;;;;;;;8.17;3.60;;;;;;;;;;5015524;28;20254;-58
2021/01/12 14:12:36;;;;;;;6.07;2.87;;;;;;;;;;5015514;28;20251;-58
2021/01/12 14:15:03;;;;;;;8.67;3.20;;;;;;;;;;5015454;28;20614;-58
2021/01/12 14:17:31;;;;;;;7.03;3.47;;;;;;;;;;5015418;28;20252;-58
2021/01/12 14:19:58;;;;;;;5.50;3.10;;;;;;;;;;5015291;28;20262;-58
2021/01/12 14:22:28;;;;;;;5.50;2.70;;;;;;;;;;5015197;28;20370;-58
2021/01/12 14:24:54;;;;;;;4.70;2.00;;;;;;;;;;5015289;28;20255;-57
2021/01/12 14:27:23;;;;;;;4.03;1.90;;;;;;;;;;5015283;28;20262;-58
2021/01/12 14:29:50;;;;;;;5.80;2.03;;;;;;;;;;5015211;28;20342;-58
2021/01/12 14:32:17;;;;;;;9.30;2.50;;;;;;;;;;5015006;28;20259;-58
2021/01/12 14:34:44;;;;;;;6.37;3.23;;;;;;;;;;5016391;28;20279;-58
2021/01/12 14:37:14;;;;;;;5.97;2.73;;;;;;;;;;5015050;28;20264;-58
2021/01/12 14:40:02;;;;;;;7.47;2.80;;;;;;;;;;5014843;28;20252;-58
2021/01/12 14:42:29;;;;;;;8.33;3.80;;;;;;;;;;5014880;28;20785;-58
2021/01/12 14:44:56;;;;;;;9.43;2.93;;;;;;;;;;5014986;28;20266;-58
2021/01/12 14:47:23;;;;;;;5.60;2.27;;;;;;;;;;5014893;28;20259;-58
2021/01/12 14:49:50;;;;;;;4.03;2.00;;;;;;;;;;5014698;28;20247;-58